ウシュアイア の空港の天気 - METARとTAF

ウシュアイア空港 ( SAWH / USH ) - アルゼンチン ティエラ・デル・フエゴ州、ウシュアイア
飛行場実況気象(Metar)
観測時間07/28 22:00 ART (07/29 01:00 UTC)
風向・風速東南東 2m/s
視程10km以上
天気現象
少しの雲 雲底高度 1220m
気温6℃
湿度81%
気圧1005hPa
METARSAWH 290100Z 12004KT 9999 FEW040 06/03 Q1005
過去の天気等 Google飛行場航空写真 Wunderground天気予報

過去48時間のMETAR

飛行場予報(TAF)
発表時間: 7/28 20:00 ART (7/28 23:00 UTC)
予報対象時間: 28日21時 ART ~ 29日21時 ART
風向・風速南 5m/s
視程10km以上
少しの雲 雲底高度 1070m
全天の4割程度の雲 雲底高度 2440m
29日2時 ART ~ 29日9時 ART に 確率 40% で一時的に
視程4000m
天気現象雨 もや
全天の8割程度の雲 雲底高度 240m
全天を覆う雲 雲底高度 760m
29日10時 ART ~ 29日12時 ART に徐々に
風向・風速北北西 5m/s
視程10km以上
天気現象弱い霧雨
全天の4割程度の雲 雲底高度 910m
全天の8割程度の雲 雲底高度 1370m
TAF SAWH 282300Z 2900/2924 19010KT 9999 FEW035 SCT080 TX08/2918Z TN03/2910Z
PROB40 TEMPO 2905/2912 4000 RA BR BKN008 OVC025
BECMG 2913/2915 34010KT 9999 -DZ SCT030 BKN045